Terminal Aerodrome Forecast
Issued by NWS

Home | Current Version | Previous Version | Text Only | Print | Product List | Glossary On
Versions: 1 2 3 4 5 6 7 8 9 10 11 12 13 14 15 16 17 18 19 20 21 22 23
000
FTUS45 KGJT 302323
TAFRIL
TAF
KRIL 302323Z 0100/0124 34010KT P6SM VCSH SCT100 BKN200
     FM010300 24004KT P6SM FEW100 BKN200
     FM010600 13004KT P6SM BKN200
     FM011900 32006KT P6SM FEW100 BKN200=

USA.gov is the U.S. government's official web portal to all federal, state and local government web resources and services.